| time (UTC) | temp F | wind direction | speed MPH | gust MPH | rain 1hr in | rain 24hr in | rain mn in | humidity % | barometer mb |
| 20260508034555 | 47 | 360 | 2.0 | 6.0 | 0.00 | 0.02 | 0.02 | 46 | 1009.3 |
| 20260508033055 | 47 | 84 | 2.0 | 6.0 | 0.00 | 0.02 | 0.02 | 46 | 1009.4 |
| 20260508031548 | 48 | 47 | 2.0 | 5.0 | 0.00 | 0.02 | 0.02 | 46 | 1009.5 |
| 20260508030054 | 48 | 17 | 1.0 | 4.0 | 0.00 | 0.02 | 0.02 | 46 | 1009.6 |
| 20260508024550 | 48 | 34 | 1.0 | 5.0 | 0.00 | 0.02 | 0.02 | 47 | 1009.7 |
| 20260508023051 | 48 | 49 | 1.0 | 4.0 | 0.00 | 0.02 | 0.02 | 48 | 1009.6 |
| 20260508021553 | 48 | 26 | 1.0 | 3.0 | 0.00 | 0.02 | 0.02 | 49 | 1009.6 |
| 20260508020049 | 47 | 0 | 0.0 | 2.0 | 0.00 | 0.02 | 0.02 | 53 | 1009.6 |
| 20260508014554 | 47 | 51 | 1.0 | 3.0 | 0.00 | 0.02 | 0.02 | 55 | 1009.5 |
| 20260508013049 | 47 | 59 | 2.0 | 3.0 | 0.00 | 0.02 | 0.02 | 56 | 1009.5 |
| 20260508011548 | 48 | 59 | 2.0 | 3.0 | 0.00 | 0.02 | 0.02 | 56 | 1009.3 |
| 20260508010056 | 47 | 59 | 2.0 | 4.0 | 0.00 | 0.02 | 0.02 | 56 | 1009.0 |
| 20260508004549 | 48 | 15 | 1.0 | 3.0 | 0.00 | 0.02 | 0.02 | 53 | 1008.9 |
| 20260508003059 | 49 | 15 | 0.0 | 3.0 | 0.00 | 0.02 | 0.02 | 55 | 1008.5 |
| 20260508001558 | 51 | 15 | 1.0 | 3.0 | 0.00 | 0.02 | 0.02 | 52 | 1008.2 |
| 20260508000100 | 53 | 0 | 0.0 | 2.0 | 0.00 | 0.02 | 0.02 | 48 | 1008.3 |
| 20260507234548 | 54 | 334 | 0.0 | 3.0 | 0.00 | 0.02 | 0.02 | 43 | 1008.4 |
| 20260507233052 | 55 | 312 | 1.0 | 4.0 | 0.00 | 0.02 | 0.02 | 41 | 1008.2 |
| 20260507231549 | 55 | 0 | 2.0 | 6.0 | 0.00 | 0.02 | 0.02 | 41 | 1008.2 |
| 20260507230049 | 56 | 333 | 4.0 | 10.0 | 0.00 | 0.02 | 0.02 | 37 | 1008.0 |
| 20260507224611 | 57 | 5 | 5.0 | 12.0 | 0.00 | 0.02 | 0.02 | 37 | 1007.9 |
| 20260507223055 | 58 | 327 | 5.0 | 13.0 | 0.00 | 0.02 | 0.02 | 35 | 1007.9 |
| 20260507221553 | 56 | 256 | 5.0 | 14.0 | 0.00 | 0.02 | 0.02 | 38 | 1008.0 |
| 20260507220050 | 57 | 333 | 6.0 | 13.0 | 0.00 | 0.02 | 0.02 | 38 | 1008.1 |
| 20260507214554 | 57 | 275 | 7.0 | 15.0 | 0.00 | 0.02 | 0.02 | 38 | 1008.0 |
| 20260507213049 | 58 | 271 | 4.0 | 14.0 | 0.00 | 0.02 | 0.02 | 39 | 1007.7 |
| 20260507211615 | 60 | 323 | 6.0 | 12.0 | 0.00 | 0.02 | 0.02 | 34 | 1007.6 |
| 20260507210054 | 61 | 284 | 6.0 | 13.0 | 0.00 | 0.02 | 0.02 | 34 | 1007.7 |
| 20260507204549 | 62 | 260 | 4.0 | 11.0 | 0.00 | 0.04 | 0.02 | 37 | 1007.5 |
| 20260507203050 | 61 | 330 | 7.0 | 14.0 | 0.00 | 0.04 | 0.02 | 36 | 1007.4 |
| 20260507201607 | 61 | 235 | 6.0 | 13.0 | 0.00 | 0.04 | 0.02 | 32 | 1007.4 |
| 20260507200100 | 62 | 281 | 8.0 | 15.0 | 0.00 | 0.04 | 0.02 | 32 | 1007.5 |
| 20260507194554 | 61 | 242 | 3.0 | 13.0 | 0.00 | 0.07 | 0.02 | 34 | 1007.7 |
| 20260507193044 | 60 | 251 | 4.0 | 18.0 | 0.00 | 0.07 | 0.02 | 36 | 1007.9 |
| 20260507191552 | 60 | 10 | 4.0 | 15.0 | 0.00 | 0.07 | 0.02 | 38 | 1007.9 |
| 20260507190057 | 59 | 348 | 5.0 | 14.0 | 0.00 | 0.07 | 0.02 | 46 | 1008.2 |
| 20260507184548 | 59 | 10 | 3.0 | 13.0 | 0.00 | 0.15 | 0.02 | 40 | 1008.2 |
| 20260507183051 | 58 | 107 | 3.0 | 14.0 | 0.00 | 0.15 | 0.02 | 36 | 1008.4 |
| 20260507181551 | 58 | 258 | 4.0 | 13.0 | 0.00 | 0.15 | 0.02 | 35 | 1008.7 |
| 20260507180050 | 58 | 63 | 5.0 | 13.0 | 0.00 | 0.15 | 0.02 | 39 | 1008.8 |
| 20260507174550 | 57 | 248 | 4.0 | 12.0 | 0.00 | 0.23 | 0.02 | 38 | 1009.0 |
| 20260507173055 | 57 | 303 | 5.0 | 14.0 | 0.00 | 0.23 | 0.02 | 40 | 1009.2 |
| 20260507171551 | 56 | 241 | 5.0 | 12.0 | 0.00 | 0.23 | 0.02 | 38 | 1009.3 |
| 20260507170051 | 56 | 38 | 5.0 | 12.0 | 0.00 | 0.23 | 0.02 | 39 | 1009.5 |
| 20260507164549 | 55 | 9 | 4.0 | 10.0 | 0.00 | 0.31 | 0.02 | 41 | 1009.5 |
| 20260507163049 | 55 | 23 | 4.0 | 12.0 | 0.00 | 0.31 | 0.02 | 40 | 1009.7 |
| 20260507161552 | 55 | 340 | 7.0 | 17.0 | 0.00 | 0.31 | 0.02 | 44 | 1009.9 |
| 20260507160047 | 54 | 330 | 5.0 | 12.0 | 0.00 | 0.31 | 0.02 | 45 | 1010.3 |
| 20260507154558 | 53 | 338 | 5.0 | 11.0 | 0.00 | 0.31 | 0.02 | 45 | 1010.4 |
| 20260507153053 | 53 | 11 | 6.0 | 13.0 | 0.00 | 0.31 | 0.02 | 43 | 1010.7 |
| 20260507151559 | 52 | 296 | 1.0 | 7.0 | 0.00 | 0.31 | 0.02 | 44 | 1010.7 |
| 20260507150056 | 51 | 85 | 6.0 | 11.0 | 0.00 | 0.31 | 0.02 | 46 | 1010.8 |
| 20260507144555 | 51 | 5 | 6.0 | 15.0 | 0.00 | 0.31 | 0.02 | 50 | 1010.9 |
| 20260507143055 | 50 | 115 | 3.0 | 10.0 | 0.00 | 0.31 | 0.02 | 53 | 1010.8 |
| 20260507141557 | 50 | 298 | 4.0 | 12.0 | 0.00 | 0.31 | 0.02 | 54 | 1011.1 |
| 20260507140109 | 49 | 26 | 4.0 | 10.0 | 0.00 | 0.31 | 0.02 | 56 | 1011.0 |
| 20260507134548 | 49 | 15 | 7.0 | 14.0 | 0.00 | 0.31 | 0.02 | 53 | 1010.9 |
| 20260507133054 | 49 | 355 | 6.0 | 15.0 | 0.00 | 0.31 | 0.02 | 54 | 1010.9 |
| 20260507131549 | 48 | 5 | 6.0 | 11.0 | 0.00 | 0.31 | 0.02 | 63 | 1011.0 |
| 20260507130051 | 48 | 325 | 4.0 | 12.0 | 0.00 | 0.31 | 0.02 | 65 | 1010.7 |
| 20260507124549 | 47 | 27 | 8.0 | 13.0 | 0.00 | 0.31 | 0.02 | 69 | 1010.7 |
| 20260507123049 | 47 | 58 | 3.0 | 12.0 | 0.00 | 0.31 | 0.02 | 78 | 1010.6 |
| 20260507121549 | 46 | 338 | 3.0 | 10.0 | 0.00 | 0.31 | 0.02 | 84 | 1010.7 |
| 20260507120052 | 46 | 339 | 4.0 | 10.0 | 0.00 | 0.31 | 0.02 | 86 | 1010.7 |
| 20260507114549 | 45 | 69 | 2.0 | 8.0 | 0.00 | 0.31 | 0.02 | 87 | 1010.6 |
| 20260507113049 | 45 | 11 | 3.0 | 10.0 | 0.00 | 0.31 | 0.02 | 89 | 1010.4 |
| 20260507111551 | 45 | 360 | 5.0 | 10.0 | 0.00 | 0.31 | 0.02 | 90 | 1010.4 |
| 20260507110056 | 45 | 10 | 2.0 | 7.0 | 0.00 | 0.31 | 0.02 | 90 | 1010.1 |
| 20260507104555 | 44 | 355 | 1.0 | 5.0 | 0.00 | 0.31 | 0.02 | 91 | 1009.8 |
| 20260507103052 | 44 | 5 | 0.0 | 5.0 | 0.00 | 0.31 | 0.02 | 91 | 1009.4 |
| 20260507101601 | 44 | 0 | 0.0 | 2.0 | 0.00 | 0.31 | 0.02 | 91 | 1009.5 |
| 20260507100047 | 44 | 17 | 1.0 | 4.0 | 0.00 | 0.31 | 0.02 | 91 | 1009.2 |
| 20260507094559 | 45 | 14 | 2.0 | 7.0 | 0.00 | 0.31 | 0.02 | 91 | 1009.0 |
| 20260507093050 | 45 | 348 | 2.0 | 5.0 | 0.00 | 0.31 | 0.02 | 91 | 1009.1 |
| 20260507091600 | 46 | 0 | 1.0 | 10.0 | 0.00 | 0.31 | 0.02 | 91 | 1009.0 |
| 20260507090108 | 46 | 0 | 2.0 | 8.0 | 0.00 | 0.31 | 0.02 | 91 | 1008.9 |
| 20260507084546 | 46 | 342 | 2.0 | 6.0 | 0.00 | 0.31 | 0.02 | 92 | 1009.0 |
| 20260507083050 | 46 | 332 | 0.0 | 5.0 | 0.00 | 0.31 | 0.02 | 92 | 1009.4 |
| 20260507081555 | 46 | 0 | 0.0 | 4.0 | 0.00 | 0.31 | 0.02 | 92 | 1009.3 |
| 20260507080049 | 47 | 0 | 0.0 | 0.0 | 0.00 | 0.31 | 0.02 | 92 | 1009.5 |
| 20260507074546 | 47 | 0 | 0.0 | 0.0 | 0.00 | 0.31 | 0.02 | 92 | 1009.4 |
| 20260507073058 | 47 | 0 | 0.0 | 2.0 | 0.00 | 0.31 | 0.02 | 92 | 1009.4 |
| 20260507071548 | 47 | 352 | 0.0 | 4.0 | 0.00 | 0.31 | 0.02 | 92 | 1009.4 |
| 20260507070131 | 47 | 0 | 0.0 | 2.0 | 0.02 | 0.31 | 0.02 | 92 | 1009.4 |
| 20260507064551 | 47 | 0 | 0.0 | 6.0 | 0.02 | 0.31 | 0.02 | 92 | 1009.4 |
| 20260507063049 | 47 | 322 | 0.0 | 4.0 | 0.02 | 0.31 | 0.02 | 91 | 1008.9 |
| 20260507061548 | 48 | 5 | 0.0 | 7.0 | 0.02 | 0.31 | 0.02 | 90 | 1008.8 |
| 20260507060056 | 48 | 19 | 2.0 | 8.0 | 0.00 | 0.29 | 0.00 | 90 | 1008.7 |
| 20260507054555 | 48 | 348 | 2.0 | 7.0 | 0.00 | 0.29 | 0.00 | 90 | 1008.5 |
| 20260507053053 | 48 | 339 | 1.0 | 4.0 | 0.00 | 0.29 | 0.00 | 89 | 1008.4 |
| 20260507051553 | 49 | 355 | 2.0 | 9.0 | 0.00 | 0.29 | 0.00 | 89 | 1008.5 |
| 20260507050052 | 49 | 34 | 4.0 | 8.0 | 0.00 | 0.29 | 0.00 | 89 | 1008.9 |
| 20260507044550 | 49 | 327 | 1.0 | 9.0 | 0.00 | 0.29 | 0.00 | 89 | 1009.0 |
| 20260507043049 | 49 | 350 | 2.0 | 8.0 | 0.00 | 0.29 | 0.00 | 89 | 1008.9 |
| 20260507041550 | 49 | 331 | 2.0 | 10.0 | 0.00 | 0.29 | 0.00 | 89 | 1009.1 |
| 20260507040051 | 49 | 331 | 4.0 | 10.0 | 0.00 | 0.29 | 0.00 | 88 | 1009.1 |